createdAt,value
2023-10-31T00:01:24.337Z,64.50
2023-10-31T00:04:30.136Z,63.85
2023-10-31T00:07:35.473Z,63.91
2023-10-31T00:10:41.359Z,64.30
2023-10-31T00:13:46.715Z,64.41
2023-10-31T00:16:52.310Z,64.64
2023-10-31T00:19:57.994Z,65.08
2023-10-31T00:23:04.287Z,64.31
2023-10-31T00:26:10.684Z,64.22
2023-10-31T00:29:19.682Z,64.73
2023-10-31T00:32:24.923Z,64.83
2023-10-31T00:35:30.793Z,65.18
2023-10-31T00:38:36.699Z,65.02
2023-10-31T00:41:42.278Z,65.18
2023-10-31T00:44:47.146Z,65.17
2023-10-31T00:47:53.137Z,65.66
2023-10-31T00:51:00.324Z,65.71
2023-10-31T00:54:05.634Z,65.26
2023-10-31T00:57:10.865Z,65.99
2023-10-31T01:00:17.496Z,64.90
2023-10-31T01:03:23.482Z,65.03
2023-10-31T01:06:29.918Z,65.10
2023-10-31T01:09:35.180Z,64.91
2023-10-31T01:12:42.367Z,64.78
2023-10-31T01:15:47.497Z,64.92
2023-10-31T01:18:52.639Z,65.77
2023-10-31T01:21:58.226Z,65.15
2023-10-31T01:25:03.615Z,64.87
2023-10-31T01:28:10.610Z,64.84
2023-10-31T01:31:16.654Z,64.76
2023-10-31T01:34:22.152Z,64.59
2023-10-31T01:37:28.529Z,64.82
2023-10-31T01:40:34.989Z,64.91
2023-10-31T01:43:53.109Z,64.51
2023-10-31T01:46:58.562Z,65.06
2023-10-31T01:50:04.702Z,64.77
2023-10-31T01:53:09.909Z,64.90
2023-10-31T01:56:15.030Z,65.03
2023-10-31T01:59:21.385Z,64.88
2023-10-31T02:02:26.973Z,65.12
2023-10-31T02:05:34.648Z,65.17
2023-10-31T02:08:40.758Z,65.06
2023-10-31T02:11:45.763Z,65.08
2023-10-31T02:14:51.394Z,65.20
2023-10-31T02:17:57.881Z,64.93
2023-10-31T02:21:04.922Z,64.47
2023-10-31T02:24:18.258Z,64.84
2023-10-31T02:27:23.539Z,65.03
2023-10-31T02:30:30.373Z,65.14
2023-10-31T02:33:35.722Z,65.11
2023-10-31T02:36:41.378Z,65.08
2023-10-31T02:39:48.234Z,64.66
2023-10-31T02:42:54.771Z,64.44
2023-10-31T02:46:00.919Z,63.96
2023-10-31T02:49:07.326Z,64.17
2023-10-31T02:52:12.815Z,64.26
2023-10-31T02:55:19.732Z,64.66
2023-10-31T02:58:24.606Z,64.57
2023-10-31T03:01:30.333Z,64.68
2023-10-31T03:04:36.666Z,64.45
2023-10-31T03:07:42.751Z,64.63
2023-10-31T03:10:48.233Z,64.63
2023-10-31T03:13:53.446Z,64.78
2023-10-31T03:16:58.604Z,64.92
2023-10-31T03:20:04.998Z,64.73
2023-10-31T03:23:11.380Z,64.79
2023-10-31T03:26:17.046Z,64.45
2023-10-31T03:29:22.670Z,64.63
2023-10-31T03:32:28.224Z,64.79
2023-10-31T03:35:33.480Z,64.80
2023-10-31T03:38:39.834Z,64.65
2023-10-31T03:41:46.102Z,64.87
2023-10-31T03:44:51.469Z,64.48
2023-10-31T03:47:56.738Z,64.28
2023-10-31T03:51:02.087Z,64.31
2023-10-31T03:54:07.195Z,64.43
2023-10-31T03:57:13.237Z,64.58
2023-10-31T04:00:19.752Z,64.65
2023-10-31T04:03:25.402Z,64.83
2023-10-31T04:06:31.159Z,64.66
2023-10-31T04:09:37.397Z,64.69
2023-10-31T04:12:43.351Z,65.04
2023-10-31T04:15:48.595Z,64.52
2023-10-31T04:18:53.624Z,64.59
2023-10-31T04:21:58.766Z,65.65
2023-10-31T04:25:04.894Z,65.34
2023-10-31T04:28:11.233Z,65.50
2023-10-31T04:31:20.341Z,65.30
2023-10-31T04:34:25.411Z,65.13
2023-10-31T04:37:33.890Z,65.60
2023-10-31T04:40:38.592Z,66.30
2023-10-31T04:43:44.578Z,65.62
2023-10-31T04:46:50.106Z,65.46
2023-10-31T04:49:56.578Z,65.51
2023-10-31T04:53:02.407Z,65.33
2023-10-31T04:56:08.955Z,65.32
2023-10-31T04:59:15.105Z,66.15
2023-10-31T05:02:20.434Z,66.01
2023-10-31T05:05:25.669Z,65.59
2023-10-31T05:08:30.936Z,65.84
2023-10-31T05:11:36.261Z,66.42
2023-10-31T05:14:42.398Z,66.85
2023-10-31T05:17:48.161Z,66.87
2023-10-31T05:20:53.833Z,66.96
2023-10-31T05:23:59.750Z,67.30
2023-10-31T05:27:05.516Z,67.10
2023-10-31T05:30:11.529Z,66.73
2023-10-31T05:33:18.258Z,66.61
2023-10-31T05:36:36.485Z,66.41
2023-10-31T05:39:44.660Z,66.23
2023-10-31T05:42:50.713Z,66.12
2023-10-31T05:45:56.740Z,66.15
2023-10-31T05:49:01.815Z,66.64
2023-10-31T05:52:08.114Z,66.69
2023-10-31T05:55:14.251Z,67.47
2023-10-31T05:58:20.699Z,67.12
2023-10-31T06:01:26.692Z,66.88
2023-10-31T06:04:33.166Z,66.73
2023-10-31T06:07:39.566Z,65.93
2023-10-31T06:10:45.297Z,65.67
2023-10-31T06:13:51.667Z,65.78
2023-10-31T06:16:59.569Z,65.90
2023-10-31T06:20:04.734Z,65.61
2023-10-31T06:23:11.768Z,65.08
2023-10-31T06:26:17.298Z,65.76
2023-10-31T06:29:42.995Z,66.15
2023-10-31T06:32:30.887Z,66.17
2023-10-31T06:35:38.137Z,66.80
2023-10-31T06:38:43.017Z,66.84
2023-10-31T06:41:48.242Z,66.84
2023-10-31T06:44:53.728Z,66.52
2023-10-31T06:47:59.208Z,66.26
2023-10-31T06:51:05.403Z,66.11
2023-10-31T06:54:11.394Z,66.61
2023-10-31T06:57:16.626Z,66.72
2023-10-31T07:00:27.002Z,66.81
2023-10-31T07:03:32.298Z,67.05
2023-10-31T07:06:40.324Z,67.23
2023-10-31T07:09:49.569Z,66.88
2023-10-31T07:12:55.109Z,67.03
2023-10-31T07:16:00.798Z,67.60
2023-10-31T07:19:07.653Z,67.42
2023-10-31T07:22:12.928Z,66.70
2023-10-31T07:25:19.823Z,66.28
2023-10-31T07:28:25.170Z,65.87
2023-10-31T07:31:31.199Z,66.48
2023-10-31T07:34:37.889Z,65.73
2023-10-31T07:37:43.295Z,65.66
2023-10-31T07:40:49.078Z,65.71
2023-10-31T07:43:55.453Z,65.04
2023-10-31T07:47:01.065Z,64.09
2023-10-31T07:50:07.571Z,64.53
2023-10-31T07:53:14.079Z,64.68
2023-10-31T07:56:20.243Z,65.38
2023-10-31T07:59:26.302Z,65.04
2023-10-31T08:02:31.563Z,64.35
2023-10-31T08:05:37.100Z,64.87
2023-10-31T08:08:42.294Z,65.23
2023-10-31T08:11:47.770Z,65.32
2023-10-31T08:14:54.276Z,65.10
2023-10-31T08:18:01.573Z,64.66
2023-10-31T08:21:08.029Z,65.07
2023-10-31T08:24:13.293Z,64.19
2023-10-31T08:27:21.074Z,63.93
2023-10-31T08:30:28.393Z,63.47
2023-10-31T08:33:33.534Z,63.15
2023-10-31T08:36:40.074Z,63.24
2023-10-31T08:39:45.430Z,63.05
2023-10-31T08:42:51.101Z,62.46
2023-10-31T08:45:56.612Z,63.24
2023-10-31T08:49:02.294Z,62.91
2023-10-31T08:52:09.812Z,62.27
2023-10-31T08:55:15.518Z,62.08
2023-10-31T08:58:26.464Z,62.24
2023-10-31T09:01:33.336Z,62.34
2023-10-31T09:04:39.407Z,62.38
2023-10-31T09:07:45.053Z,62.10
2023-10-31T09:10:54.660Z,61.86
2023-10-31T09:13:59.906Z,61.50
2023-10-31T09:17:05.999Z,61.16
2023-10-31T09:20:12.162Z,61.30
2023-10-31T09:23:18.514Z,60.76
2023-10-31T09:26:25.871Z,60.13
2023-10-31T09:29:32.244Z,60.04
2023-10-31T09:32:39.372Z,59.57
2023-10-31T09:35:45.451Z,59.61
2023-10-31T09:38:50.629Z,58.97
2023-10-31T09:41:55.973Z,58.63
2023-10-31T09:45:04.472Z,58.33
2023-10-31T09:48:10.087Z,57.10
2023-10-31T09:51:18.996Z,56.12
2023-10-31T09:54:25.003Z,56.19
2023-10-31T09:57:31.158Z,55.22
2023-10-31T10:00:37.050Z,54.14
2023-10-31T10:03:51.829Z,53.78
2023-10-31T10:07:09.532Z,53.49
2023-10-31T10:10:15.471Z,52.86
2023-10-31T10:13:22.104Z,52.35
2023-10-31T10:16:27.863Z,51.92
2023-10-31T10:19:36.360Z,51.56
2023-10-31T10:22:44.384Z,51.06
2023-10-31T10:25:50.782Z,50.93
2023-10-31T10:28:56.793Z,50.63
2023-10-31T10:32:02.673Z,49.81
2023-10-31T10:35:10.041Z,49.09
2023-10-31T10:38:16.111Z,48.95
2023-10-31T10:41:22.344Z,48.60
2023-10-31T10:44:28.356Z,48.44
2023-10-31T10:47:34.843Z,48.26
2023-10-31T10:50:41.403Z,48.47
2023-10-31T10:53:53.406Z,47.89
2023-10-31T10:57:09.274Z,47.55
2023-10-31T11:00:21.128Z,46.98
2023-10-31T11:03:26.728Z,46.60
2023-10-31T11:49:09.940Z,54.88
2023-10-31T11:52:16.953Z,53.75
2023-10-31T11:55:29.163Z,53.20
2023-10-31T11:58:39.809Z,52.68
2023-10-31T12:01:46.647Z,53.22
2023-10-31T12:04:53.464Z,52.70
2023-10-31T12:08:01.357Z,53.13
2023-10-31T12:11:06.915Z,52.44
2023-10-31T12:14:17.061Z,52.18
2023-10-31T12:17:24.197Z,51.85
2023-10-31T12:20:31.012Z,51.43
2023-10-31T12:23:36.987Z,52.88
2023-10-31T12:26:42.965Z,53.42
2023-10-31T12:29:47.819Z,54.09
2023-10-31T12:32:55.089Z,54.21
2023-10-31T12:36:04.131Z,53.68
2023-10-31T12:39:11.351Z,54.04
2023-10-31T12:42:19.578Z,53.77
2023-10-31T12:45:26.110Z,53.57
2023-10-31T12:48:31.094Z,53.41
2023-10-31T12:51:37.479Z,53.35
2023-10-31T12:54:53.929Z,52.60
2023-10-31T12:57:59.975Z,52.78
2023-10-31T13:01:06.867Z,52.57
2023-10-31T13:04:12.594Z,51.57
2023-10-31T13:07:21.924Z,51.86
2023-10-31T13:10:27.495Z,51.52
2023-10-31T13:13:33.224Z,51.88
2023-10-31T13:16:38.206Z,52.36
2023-10-31T13:19:43.731Z,51.18
2023-10-31T13:22:51.646Z,52.39
2023-10-31T13:25:57.409Z,52.17
2023-10-31T13:29:02.669Z,52.24
2023-10-31T13:32:11.001Z,52.19
2023-10-31T13:35:19.837Z,51.82
2023-10-31T13:38:26.120Z,51.79
2023-10-31T13:41:31.546Z,51.47
2023-10-31T13:44:38.298Z,51.82
2023-10-31T13:47:46.177Z,52.15
2023-10-31T13:50:52.834Z,52.09
2023-10-31T13:53:58.951Z,51.61
2023-10-31T13:57:06.861Z,51.74
2023-10-31T14:00:12.991Z,51.78
2023-10-31T14:03:19.672Z,51.48
2023-10-31T14:06:26.912Z,52.22
2023-10-31T14:09:33.508Z,52.07
2023-10-31T14:12:39.422Z,53.24
2023-10-31T14:15:46.270Z,53.09
2023-10-31T14:18:54.287Z,53.58
2023-10-31T14:22:03.372Z,53.48
2023-10-31T14:25:11.084Z,53.32
2023-10-31T14:28:16.893Z,53.60
2023-10-31T14:31:23.366Z,53.50
2023-10-31T14:34:28.160Z,53.86
2023-10-31T14:37:36.116Z,54.56
2023-10-31T14:40:41.974Z,55.73
2023-10-31T14:43:47.637Z,57.02
2023-10-31T14:46:53.777Z,58.01
2023-10-31T14:49:59.532Z,59.10
2023-10-31T14:53:06.424Z,59.44
2023-10-31T14:56:14.183Z,59.62
2023-10-31T14:59:23.630Z,59.44
2023-10-31T15:02:28.684Z,59.93
2023-10-31T15:05:35.834Z,59.71
2023-10-31T15:08:41.584Z,60.00
2023-10-31T15:11:47.881Z,60.55
2023-10-31T15:14:53.900Z,60.49
2023-10-31T15:18:01.855Z,60.85
2023-10-31T15:21:08.201Z,60.85
2023-10-31T15:24:15.888Z,61.16
2023-10-31T15:27:23.694Z,61.86
2023-10-31T15:30:29.306Z,61.91
2023-10-31T15:33:34.448Z,61.84
2023-10-31T15:36:40.288Z,61.63
2023-10-31T15:39:45.480Z,61.31
2023-10-31T15:42:51.192Z,61.63
2023-10-31T15:45:56.599Z,62.10
2023-10-31T15:49:03.656Z,61.16
2023-10-31T15:52:10.101Z,61.35
2023-10-31T15:55:14.737Z,62.09
2023-10-31T15:58:19.720Z,63.06
2023-10-31T16:01:24.962Z,63.09
2023-10-31T16:04:31.787Z,62.82
2023-10-31T16:07:37.253Z,64.01
2023-10-31T16:10:42.658Z,64.34
2023-10-31T16:13:49.256Z,64.65
2023-10-31T16:16:55.297Z,64.13
2023-10-31T16:20:01.533Z,64.64
2023-10-31T16:23:07.282Z,64.97
2023-10-31T16:26:15.568Z,64.83
2023-10-31T16:29:23.470Z,66.55
2023-10-31T16:32:29.653Z,67.14
2023-10-31T16:35:35.867Z,66.67
2023-10-31T16:38:42.313Z,66.59
2023-10-31T16:41:48.124Z,66.56
2023-10-31T16:44:55.773Z,66.81
2023-10-31T16:48:03.700Z,66.78
2023-10-31T16:51:09.882Z,66.42
2023-10-31T16:54:15.487Z,66.73
2023-10-31T16:57:20.930Z,67.91
2023-10-31T17:00:27.104Z,67.00
2023-10-31T17:03:32.537Z,67.43
2023-10-31T17:06:38.964Z,68.85
2023-10-31T17:09:45.344Z,69.25
2023-10-31T17:12:51.289Z,69.34
2023-10-31T17:15:56.081Z,70.08
2023-10-31T17:19:02.728Z,69.30
2023-10-31T17:22:08.211Z,69.90
2023-10-31T17:25:13.357Z,70.49
2023-10-31T17:28:19.370Z,70.37
2023-10-31T17:31:18.283Z,70.50
2023-10-31T17:34:12.305Z,71.52
2023-10-31T17:37:18.111Z,71.06
2023-10-31T17:40:24.813Z,71.15
2023-10-31T17:43:30.574Z,70.98
2023-10-31T17:46:35.787Z,71.25
2023-10-31T17:49:40.690Z,71.39
2023-10-31T17:52:46.936Z,70.52
2023-10-31T17:55:55.427Z,70.46
2023-10-31T17:59:01.489Z,70.07
2023-10-31T18:02:07.310Z,68.93
2023-10-31T18:05:16.674Z,68.67
2023-10-31T18:08:21.860Z,68.81
2023-10-31T18:11:27.556Z,68.79
2023-10-31T18:14:34.333Z,69.06
2023-10-31T18:17:39.899Z,70.89
2023-10-31T18:20:46.061Z,71.72
2023-10-31T18:23:52.886Z,72.18
2023-10-31T18:26:58.519Z,72.24
2023-10-31T18:30:09.619Z,72.48
2023-10-31T18:33:15.034Z,72.56
2023-10-31T18:36:27.379Z,72.75
2023-10-31T18:39:28.448Z,73.57
2023-10-31T18:42:33.547Z,74.25
2023-10-31T18:45:39.000Z,74.46
2023-10-31T18:48:47.144Z,74.09
2023-10-31T18:51:53.742Z,73.95
2023-10-31T18:55:01.532Z,74.22
2023-10-31T18:58:06.518Z,74.89
2023-10-31T19:01:13.109Z,75.63
2023-10-31T19:04:21.518Z,75.61
2023-10-31T19:07:27.516Z,76.06
2023-10-31T19:10:34.139Z,74.72
2023-10-31T19:13:40.037Z,74.67
2023-10-31T19:16:45.462Z,74.72
2023-10-31T19:19:52.136Z,74.53
2023-10-31T19:22:58.604Z,72.82
2023-10-31T19:26:04.995Z,74.29
2023-10-31T19:29:10.811Z,73.90
2023-10-31T19:32:16.548Z,73.80
2023-10-31T19:35:23.115Z,73.20
2023-10-31T19:38:29.301Z,72.53
2023-10-31T19:41:35.885Z,72.60
2023-10-31T19:44:42.804Z,73.29
2023-10-31T19:47:49.377Z,72.81
2023-10-31T19:50:56.005Z,72.24
2023-10-31T19:54:00.846Z,72.79
2023-10-31T19:57:07.859Z,72.49
2023-10-31T20:00:13.590Z,72.61
2023-10-31T20:03:20.675Z,72.90
2023-10-31T20:06:27.249Z,72.26
2023-10-31T20:09:32.678Z,72.67
2023-10-31T20:12:38.602Z,71.41
2023-10-31T20:15:45.436Z,70.58
2023-10-31T20:18:51.499Z,70.86
2023-10-31T20:21:59.233Z,70.83
2023-10-31T20:25:04.403Z,71.10
2023-10-31T20:28:10.281Z,70.50
2023-10-31T20:31:15.987Z,70.66
2023-10-31T20:34:22.812Z,70.97
2023-10-31T20:37:28.532Z,70.68
2023-10-31T20:40:35.675Z,70.10
2023-10-31T20:43:42.231Z,70.24
2023-10-31T20:46:49.133Z,70.29
2023-10-31T20:49:55.034Z,70.38
2023-10-31T20:53:03.469Z,69.39
2023-10-31T20:56:09.213Z,69.61
2023-10-31T20:59:17.854Z,69.22
2023-10-31T21:02:24.315Z,69.25
2023-10-31T21:05:31.001Z,68.82
2023-10-31T21:08:38.168Z,69.02
2023-10-31T21:11:43.742Z,69.68
2023-10-31T21:14:50.019Z,69.60
2023-10-31T21:17:56.230Z,68.76
2023-10-31T21:21:02.632Z,68.32
2023-10-31T21:24:09.065Z,68.29
2023-10-31T21:27:14.546Z,68.02
2023-10-31T21:30:22.251Z,68.45
2023-10-31T21:33:30.582Z,68.95
2023-10-31T21:36:36.628Z,68.35
2023-10-31T21:39:42.475Z,68.58
2023-10-31T21:42:47.444Z,68.70
2023-10-31T21:45:53.461Z,68.61
2023-10-31T21:48:59.047Z,68.85
2023-10-31T21:52:05.161Z,67.50
2023-10-31T21:55:12.790Z,68.00
2023-10-31T21:58:18.867Z,68.25
2023-10-31T22:01:24.105Z,69.15
2023-10-31T22:04:29.600Z,69.36
2023-10-31T22:07:35.706Z,68.80
2023-10-31T22:10:42.113Z,68.70
2023-10-31T22:13:48.306Z,68.46
2023-10-31T22:16:53.718Z,68.19
2023-10-31T22:20:00.484Z,68.40
2023-10-31T22:23:06.757Z,68.29
2023-10-31T22:26:11.765Z,67.44
2023-10-31T22:29:19.537Z,67.07
2023-10-31T22:32:25.195Z,66.27
2023-10-31T22:35:31.005Z,65.49
2023-10-31T22:38:36.325Z,65.57
2023-10-31T22:41:41.826Z,65.71
2023-10-31T22:44:47.476Z,66.46
2023-10-31T22:47:55.351Z,67.31
2023-10-31T22:51:02.186Z,66.75
2023-10-31T22:54:08.434Z,66.86
2023-10-31T22:57:14.745Z,67.50
2023-10-31T23:00:26.379Z,68.05
2023-10-31T23:03:32.934Z,68.06
2023-10-31T23:06:40.714Z,67.98
2023-10-31T23:09:46.759Z,67.17
2023-10-31T23:12:54.287Z,67.92
2023-10-31T23:16:00.675Z,67.38
2023-10-31T23:19:05.752Z,67.19
2023-10-31T23:22:11.887Z,67.40
2023-10-31T23:25:17.313Z,66.81
2023-10-31T23:28:24.095Z,66.77
2023-10-31T23:31:30.682Z,66.94
2023-10-31T23:34:37.860Z,66.20
2023-10-31T23:37:45.726Z,65.85
2023-10-31T23:40:53.873Z,65.89
2023-10-31T23:44:00.282Z,66.34
2023-10-31T23:47:06.945Z,66.21
2023-10-31T23:50:13.750Z,66.39
2023-10-31T23:53:20.767Z,66.55
2023-10-31T23:56:27.645Z,67.19
2023-10-31T23:59:33.275Z,67.32
